createdAt,value
2022-12-06T00:01:34.792Z,15.55
2022-12-06T00:04:11.789Z,13.10
2022-12-06T00:06:45.274Z,15.00
2022-12-06T00:09:20.036Z,13.82
2022-12-06T00:11:48.146Z,15.93
2022-12-06T00:14:15.957Z,14.00
2022-12-06T00:16:43.711Z,15.95
2022-12-06T00:19:16.892Z,14.85
2022-12-06T00:21:44.697Z,14.63
2022-12-06T00:24:15.158Z,14.85
2022-12-06T00:26:45.170Z,14.43
2022-12-06T00:29:15.956Z,15.23
2022-12-06T00:31:43.745Z,15.15
2022-12-06T00:34:11.641Z,15.18
2022-12-06T00:36:41.346Z,16.67
2022-12-06T00:39:11.666Z,16.13
2022-12-06T00:41:39.846Z,15.30
2022-12-06T00:44:07.643Z,15.05
2022-12-06T00:46:36.400Z,16.17
2022-12-06T00:49:06.550Z,13.55
2022-12-06T00:51:35.525Z,14.57
2022-12-06T00:54:03.553Z,15.73
2022-12-06T00:56:31.640Z,14.75
2022-12-06T00:58:59.361Z,14.65
2022-12-06T01:01:29.893Z,14.60
2022-12-06T01:04:00.585Z,15.00
2022-12-06T01:06:31.149Z,15.65
2022-12-06T01:09:01.749Z,15.68
2022-12-06T01:11:30.048Z,15.88
2022-12-06T01:13:57.835Z,15.35
2022-12-06T01:16:29.259Z,15.00
2022-12-06T01:18:59.582Z,16.77
2022-12-06T01:21:28.565Z,15.48
2022-12-06T01:23:56.754Z,15.15
2022-12-06T01:26:35.099Z,14.48
2022-12-06T01:29:04.049Z,14.25
2022-12-06T01:31:38.604Z,13.77
2022-12-06T01:34:15.545Z,14.57
2022-12-06T01:36:43.796Z,15.32
2022-12-06T01:39:12.782Z,13.95
2022-12-06T01:41:40.786Z,14.07
2022-12-06T01:44:43.131Z,13.77
2022-12-06T01:47:49.146Z,14.95
2022-12-06T01:50:27.857Z,14.57
2022-12-06T01:53:10.173Z,14.65
2022-12-06T01:55:40.896Z,15.05
2022-12-06T01:58:13.499Z,13.85
2022-12-06T02:00:41.159Z,15.73
2022-12-06T02:03:14.181Z,14.88
2022-12-06T02:05:42.424Z,14.20
2022-12-06T02:08:11.165Z,15.77
2022-12-06T02:10:39.268Z,13.63
2022-12-06T02:13:07.485Z,16.13
2022-12-06T02:15:50.283Z,14.30
2022-12-06T02:18:34.857Z,12.45
2022-12-06T02:21:05.568Z,14.32
2022-12-06T02:24:02.641Z,14.48
2022-12-06T02:26:42.284Z,13.52
2022-12-06T02:29:18.916Z,14.80
2022-12-06T02:32:18.232Z,13.45
2022-12-06T02:35:20.503Z,15.15
2022-12-06T02:37:58.214Z,15.40
2022-12-06T02:40:58.208Z,13.35
2022-12-06T02:43:35.949Z,13.27
2022-12-06T02:46:04.709Z,14.95
2022-12-06T02:48:34.167Z,14.70
2022-12-06T02:51:06.517Z,13.73
2022-12-06T02:53:38.248Z,14.27
2022-12-06T02:56:06.240Z,13.52
2022-12-06T02:58:37.963Z,13.75
2022-12-06T03:01:15.430Z,13.68
2022-12-06T03:04:07.617Z,12.35
2022-12-06T03:07:15.091Z,11.85
2022-12-06T03:10:04.292Z,11.48
2022-12-06T03:13:02.889Z,12.38
2022-12-06T03:15:49.037Z,13.43
2022-12-06T03:18:16.611Z,11.02
2022-12-06T03:20:56.483Z,12.40
2022-12-06T03:23:37.836Z,11.98
2022-12-06T03:26:07.060Z,12.10
2022-12-06T03:28:37.063Z,13.75
2022-12-06T03:31:09.890Z,11.82
2022-12-06T03:33:44.064Z,12.40
2022-12-06T03:36:14.753Z,11.23
2022-12-06T03:39:06.518Z,11.48
2022-12-06T03:41:41.255Z,10.43
2022-12-06T03:44:09.049Z,11.40
2022-12-06T03:46:41.638Z,11.82
2022-12-06T03:49:19.400Z,13.18
2022-12-06T03:51:47.614Z,11.05
2022-12-06T03:54:16.245Z,10.98
2022-12-06T03:56:43.977Z,12.60
2022-12-06T03:59:11.910Z,12.45
2022-12-06T04:01:40.170Z,11.77
2022-12-06T04:04:07.926Z,14.02
2022-12-06T04:06:35.727Z,11.65
2022-12-06T04:09:22.159Z,12.15
2022-12-06T04:11:49.704Z,11.65
2022-12-06T04:14:17.435Z,11.73
2022-12-06T04:17:03.367Z,11.45
2022-12-06T04:19:31.124Z,12.45
2022-12-06T04:22:17.181Z,11.68
2022-12-06T04:24:44.659Z,12.55
2022-12-06T04:27:30.867Z,11.27
2022-12-06T04:30:16.862Z,11.57
2022-12-06T04:33:02.777Z,12.75
2022-12-06T04:35:48.854Z,13.57
2022-12-06T04:38:34.929Z,12.93
2022-12-06T04:41:02.521Z,12.43
2022-12-06T04:43:42.053Z,12.95
2022-12-06T04:46:11.838Z,13.48
2022-12-06T04:48:40.432Z,13.32
2022-12-06T04:51:08.009Z,12.82
2022-12-06T04:53:35.665Z,13.88
2022-12-06T04:56:03.381Z,12.38
2022-12-06T04:58:30.916Z,13.73
2022-12-06T05:00:58.598Z,15.73
2022-12-06T05:03:26.244Z,15.80
2022-12-06T05:05:53.972Z,12.90
2022-12-06T05:08:21.729Z,14.50
2022-12-06T05:10:50.336Z,13.25
2022-12-06T05:13:19.079Z,15.07
2022-12-06T05:15:51.741Z,13.82
2022-12-06T05:18:19.375Z,14.07
2022-12-06T05:20:47.308Z,12.02
2022-12-06T05:23:15.099Z,12.13
2022-12-06T05:25:43.084Z,13.30
2022-12-06T05:28:10.864Z,11.18
2022-12-06T05:30:38.470Z,13.43
2022-12-06T05:33:06.197Z,13.05
2022-12-06T05:35:33.750Z,12.57
2022-12-06T05:38:01.426Z,12.55
2022-12-06T05:40:29.048Z,14.13
2022-12-06T05:42:56.660Z,12.18
2022-12-06T05:45:24.443Z,11.60
2022-12-06T05:47:51.953Z,11.75
2022-12-06T05:50:19.654Z,13.77
2022-12-06T05:52:48.922Z,13.30
2022-12-06T05:55:16.709Z,12.27
2022-12-06T05:57:47.389Z,12.32
2022-12-06T06:00:16.085Z,11.35
2022-12-06T06:02:43.825Z,12.02
2022-12-06T06:05:12.218Z,12.60
2022-12-06T06:07:39.865Z,12.45
2022-12-06T06:10:07.986Z,12.07
2022-12-06T06:12:35.456Z,12.88
2022-12-06T06:15:05.260Z,14.25
2022-12-06T06:17:34.101Z,12.82
2022-12-06T06:20:05.694Z,12.85
2022-12-06T06:22:35.175Z,13.70
2022-12-06T06:25:03.490Z,14.82
2022-12-06T06:27:34.810Z,13.25
2022-12-06T06:30:02.783Z,15.07
2022-12-06T06:32:30.765Z,16.33
2022-12-06T06:34:58.327Z,16.42
2022-12-06T06:37:26.059Z,15.25
2022-12-06T06:39:53.734Z,15.00
2022-12-06T06:42:21.264Z,14.88
2022-12-06T06:44:48.776Z,16.13
2022-12-06T06:47:16.285Z,15.25
2022-12-06T06:49:43.829Z,14.02
2022-12-06T06:52:11.347Z,13.90
2022-12-06T06:54:39.028Z,14.30
2022-12-06T06:57:06.628Z,13.18
2022-12-06T06:59:34.351Z,13.95
2022-12-06T07:02:01.989Z,14.05
2022-12-06T07:04:30.376Z,13.45
2022-12-06T07:06:58.247Z,16.02
2022-12-06T07:09:25.902Z,12.93
2022-12-06T07:11:54.552Z,15.25
2022-12-06T07:14:22.175Z,13.65
2022-12-06T07:16:49.844Z,12.40
2022-12-06T07:19:17.485Z,12.52
2022-12-06T07:21:45.080Z,13.95
2022-12-06T07:24:12.674Z,14.52
2022-12-06T07:26:41.276Z,13.57
2022-12-06T07:29:08.809Z,13.77
2022-12-06T07:31:36.364Z,15.10
2022-12-06T07:34:04.026Z,13.73
2022-12-06T07:36:32.781Z,13.55
2022-12-06T07:39:00.857Z,14.43
2022-12-06T07:41:48.424Z,14.57
2022-12-06T07:44:56.916Z,14.10
2022-12-06T07:47:40.956Z,17.35
2022-12-06T07:50:18.263Z,16.25
2022-12-06T07:52:48.331Z,15.48
2022-12-06T07:55:16.413Z,15.80
2022-12-06T07:57:44.423Z,17.75
2022-12-06T08:00:15.631Z,17.00
2022-12-06T08:02:43.521Z,16.58
2022-12-06T08:05:12.746Z,17.17
2022-12-06T08:07:40.497Z,16.33
2022-12-06T08:10:08.756Z,17.25
2022-12-06T08:12:36.801Z,16.38
2022-12-06T08:15:05.168Z,15.88
2022-12-06T08:17:32.708Z,15.27
2022-12-06T08:20:00.535Z,16.17
2022-12-06T08:22:29.062Z,16.55
2022-12-06T08:24:56.642Z,14.75
2022-12-06T08:27:24.216Z,15.63
2022-12-06T08:29:51.975Z,16.05
2022-12-06T08:32:19.508Z,15.57
2022-12-06T08:34:47.400Z,13.13
2022-12-06T08:37:14.974Z,15.52
2022-12-06T08:39:42.678Z,15.63
2022-12-06T08:42:10.405Z,16.80
2022-12-06T08:44:38.103Z,15.88
2022-12-06T08:47:05.754Z,15.07
2022-12-06T08:49:33.463Z,14.90
2022-12-06T08:52:01.156Z,15.00
2022-12-06T08:54:29.417Z,15.07
2022-12-06T08:56:57.023Z,15.35
2022-12-06T08:59:24.735Z,16.38
2022-12-06T09:01:52.417Z,16.45
2022-12-06T09:04:20.316Z,16.17
2022-12-06T09:06:48.024Z,16.67
2022-12-06T09:09:17.959Z,15.25
2022-12-06T09:11:46.248Z,15.40
2022-12-06T09:14:21.579Z,16.83
2022-12-06T09:16:51.249Z,15.50
2022-12-06T09:19:20.041Z,14.75
2022-12-06T09:21:47.804Z,15.82
2022-12-06T09:24:17.518Z,15.73
2022-12-06T09:26:45.420Z,15.07
2022-12-06T09:29:14.541Z,14.82
2022-12-06T09:31:42.564Z,14.75
2022-12-06T09:34:12.689Z,15.18
2022-12-06T09:37:04.002Z,15.73
2022-12-06T09:39:38.202Z,13.50
2022-12-06T09:42:11.901Z,12.80
2022-12-06T09:44:45.855Z,14.20
2022-12-06T09:47:44.627Z,13.00
2022-12-06T09:50:18.691Z,14.65
2022-12-06T09:52:58.890Z,13.35
2022-12-06T09:55:38.875Z,14.13
2022-12-06T09:58:43.178Z,16.23
2022-12-06T10:01:29.038Z,14.50
2022-12-06T10:04:17.994Z,15.98
2022-12-06T10:07:09.988Z,14.63
2022-12-06T10:09:46.870Z,13.45
2022-12-06T10:12:26.853Z,13.73
2022-12-06T10:15:00.249Z,14.15
2022-12-06T10:17:52.503Z,13.55
2022-12-06T10:20:58.260Z,13.30
2022-12-06T10:23:41.433Z,15.35
2022-12-06T10:26:17.243Z,15.38
2022-12-06T10:28:46.519Z,13.75
2022-12-06T10:31:39.238Z,14.90
2022-12-06T10:34:37.563Z,14.25
2022-12-06T10:37:42.896Z,14.43
2022-12-06T10:40:45.010Z,15.23
2022-12-06T10:43:30.316Z,14.30
2022-12-06T10:46:29.191Z,15.38
2022-12-06T10:49:07.606Z,15.20
2022-12-06T10:52:04.644Z,13.00
2022-12-06T10:54:59.480Z,13.95
2022-12-06T10:57:53.043Z,15.45
2022-12-06T11:00:26.127Z,13.18
2022-12-06T11:03:12.022Z,12.60
2022-12-06T11:06:14.643Z,13.50
2022-12-06T11:08:51.125Z,12.95
2022-12-06T11:11:33.277Z,13.73
2022-12-06T11:14:15.170Z,14.05
2022-12-06T11:17:07.196Z,14.18
2022-12-06T11:19:54.985Z,14.32
2022-12-06T11:22:33.527Z,16.15
2022-12-06T11:25:09.916Z,13.45
2022-12-06T11:27:45.234Z,14.50
2022-12-06T11:30:20.615Z,12.73
2022-12-06T11:32:52.916Z,12.55
2022-12-06T11:35:25.061Z,12.98
2022-12-06T11:38:00.542Z,13.05
2022-12-06T11:40:36.684Z,13.50
2022-12-06T11:43:07.708Z,11.95
2022-12-06T11:45:39.991Z,12.50
2022-12-06T11:48:17.563Z,12.37
2022-12-06T11:50:46.949Z,11.85
2022-12-06T11:53:27.182Z,12.40
2022-12-06T11:56:05.020Z,16.15
2022-12-06T11:58:44.194Z,12.43
2022-12-06T12:01:14.517Z,13.15
2022-12-06T12:03:43.896Z,13.10
2022-12-06T12:06:23.211Z,12.70
2022-12-06T12:09:16.881Z,13.63
2022-12-06T12:11:44.576Z,12.90
2022-12-06T12:14:18.326Z,12.27
2022-12-06T12:16:48.462Z,13.10
2022-12-06T12:19:45.877Z,13.68
2022-12-06T12:22:29.512Z,13.32
2022-12-06T12:27:52.653Z,11.93
2022-12-06T12:30:29.292Z,12.07
2022-12-06T12:33:05.936Z,13.38
2022-12-06T12:35:37.906Z,12.48
2022-12-06T12:38:15.940Z,15.40
2022-12-06T12:40:52.703Z,12.60
2022-12-06T12:43:24.736Z,10.95
2022-12-06T12:46:10.938Z,13.02
2022-12-06T12:48:40.798Z,12.20
2022-12-06T12:51:40.581Z,11.43
2022-12-06T12:54:23.646Z,11.35
2022-12-06T12:56:51.386Z,11.25
2022-12-06T12:59:23.608Z,11.15
2022-12-06T13:02:18.215Z,11.80
2022-12-06T13:05:05.165Z,12.57
2022-12-06T13:07:42.261Z,12.40
2022-12-06T13:10:24.449Z,11.95
2022-12-06T13:12:57.971Z,11.93
2022-12-06T13:15:47.114Z,11.68
2022-12-06T13:18:25.899Z,12.25
2022-12-06T13:20:57.673Z,12.80
2022-12-06T13:23:29.476Z,12.18
2022-12-06T13:26:16.564Z,11.30
2022-12-06T13:28:50.958Z,11.40
2022-12-06T13:31:22.043Z,11.73
2022-12-06T13:33:59.323Z,11.88
2022-12-06T13:36:31.023Z,11.23
2022-12-06T13:38:59.277Z,11.10
2022-12-06T13:41:52.711Z,12.05
2022-12-06T13:44:48.172Z,11.52
2022-12-06T13:47:28.091Z,12.23
2022-12-06T13:49:59.612Z,12.15
2022-12-06T13:52:53.382Z,11.27
2022-12-06T13:57:55.507Z,12.18
2022-12-06T14:00:31.914Z,12.10
2022-12-06T14:03:04.194Z,11.50
2022-12-06T14:06:12.167Z,12.48
2022-12-06T14:08:54.725Z,12.15
2022-12-06T14:11:27.657Z,12.38
2022-12-06T14:14:01.400Z,11.48
2022-12-06T14:16:32.272Z,12.20
2022-12-06T14:19:00.358Z,13.50
2022-12-06T14:21:36.072Z,11.43
2022-12-06T14:24:04.595Z,11.73
2022-12-06T14:26:34.961Z,13.98
2022-12-06T14:29:02.805Z,12.23
2022-12-06T14:31:39.076Z,11.65
2022-12-06T14:34:07.002Z,12.32
2022-12-06T14:36:40.879Z,12.40
2022-12-06T14:39:18.026Z,11.98
2022-12-06T14:42:22.887Z,12.30
2022-12-06T14:45:01.810Z,12.15
2022-12-06T14:47:31.664Z,12.60
2022-12-06T14:50:20.082Z,13.13
2022-12-06T14:53:07.877Z,13.25
2022-12-06T14:55:53.991Z,13.02
2022-12-06T14:58:26.401Z,14.38
2022-12-06T15:01:05.223Z,13.33
2022-12-06T15:03:35.693Z,15.23
2022-12-06T15:06:17.208Z,14.57
2022-12-06T15:09:11.506Z,13.15
2022-12-06T15:11:59.737Z,13.75
2022-12-06T15:14:46.115Z,14.43
2022-12-06T15:17:29.096Z,14.65
2022-12-06T15:20:20.201Z,13.90
2022-12-06T15:23:09.464Z,15.07
2022-12-06T15:26:10.694Z,13.57
2022-12-06T15:28:54.075Z,13.13
2022-12-06T15:31:34.626Z,13.85
2022-12-06T15:34:48.506Z,14.30
2022-12-06T15:37:38.542Z,13.70
2022-12-06T15:40:22.287Z,14.20
2022-12-06T15:45:54.091Z,13.55
2022-12-06T15:48:32.703Z,13.55
2022-12-06T15:51:37.919Z,14.68
2022-12-06T15:54:34.775Z,14.90
2022-12-06T15:57:22.189Z,15.00
2022-12-06T15:59:57.431Z,14.95
2022-12-06T16:02:28.952Z,14.73
2022-12-06T16:05:10.464Z,14.77
2022-12-06T16:07:49.916Z,14.80
2022-12-06T16:11:03.047Z,14.82
2022-12-06T16:13:28.534Z,15.82
2022-12-06T16:16:07.705Z,16.08
2022-12-06T16:19:00.006Z,17.73
2022-12-06T16:21:52.440Z,14.43
2022-12-06T16:24:50.812Z,16.85
2022-12-06T16:27:30.543Z,14.75
2022-12-06T16:30:04.350Z,14.75
2022-12-06T16:32:45.526Z,17.15
2022-12-06T16:35:41.921Z,16.17
2022-12-06T16:38:24.632Z,16.33
2022-12-06T16:41:04.974Z,15.15
2022-12-06T16:43:40.279Z,14.82
2022-12-06T16:46:37.717Z,17.02
2022-12-06T16:49:46.211Z,15.43
2022-12-06T16:52:27.149Z,16.85
2022-12-06T16:55:22.241Z,16.55
2022-12-06T16:57:57.413Z,15.63
2022-12-06T17:00:42.090Z,17.05
2022-12-06T17:03:32.457Z,16.88
2022-12-06T17:06:19.835Z,16.98
2022-12-06T17:09:08.554Z,16.42
2022-12-06T17:12:14.267Z,17.92
2022-12-06T17:14:50.072Z,17.10
2022-12-06T17:17:28.329Z,18.17
2022-12-06T17:20:16.050Z,18.27
2022-12-06T17:22:55.284Z,17.38
2022-12-06T17:25:33.863Z,16.58
2022-12-06T17:28:20.538Z,17.80
2022-12-06T17:37:10.143Z,17.35
2022-12-06T17:39:43.075Z,16.30
2022-12-06T17:42:44.324Z,16.58
2022-12-06T17:45:24.863Z,17.02
2022-12-06T17:48:04.598Z,15.25
2022-12-06T17:50:47.122Z,15.20
2022-12-06T17:53:19.573Z,17.15
2022-12-06T17:55:57.057Z,18.40
2022-12-06T17:58:43.999Z,16.90
2022-12-06T18:04:42.922Z,17.30
2022-12-06T18:07:23.602Z,16.63
2022-12-06T18:10:06.574Z,16.75
2022-12-06T18:15:51.685Z,18.10
2022-12-06T18:19:08.560Z,16.92
2022-12-06T18:21:49.199Z,15.77
2022-12-06T18:24:39.375Z,19.08
2022-12-06T18:27:21.172Z,18.27
2022-12-06T18:30:32.735Z,17.15
2022-12-06T18:33:21.963Z,20.00
2022-12-06T18:36:15.869Z,18.63
2022-12-06T18:39:30.398Z,17.63
2022-12-06T18:42:11.846Z,19.60
2022-12-06T18:45:01.916Z,17.38
2022-12-06T18:48:10.882Z,19.67
2022-12-06T18:50:58.534Z,17.92
2022-12-06T18:53:50.698Z,15.48
2022-12-06T18:56:23.837Z,17.65
2022-12-06T19:02:12.841Z,16.38
2022-12-06T19:05:01.880Z,18.95
2022-12-06T19:07:45.115Z,17.10
2022-12-06T19:10:54.757Z,15.48
2022-12-06T19:13:59.028Z,17.48
2022-12-06T19:16:49.627Z,16.27
2022-12-06T19:19:38.693Z,15.95
2022-12-06T19:22:18.917Z,17.33
2022-12-06T19:24:54.114Z,15.07
2022-12-06T19:27:21.757Z,16.45
2022-12-06T19:29:49.619Z,16.20
2022-12-06T19:32:17.314Z,15.93
2022-12-06T19:34:54.211Z,16.92
2022-12-06T19:37:27.608Z,16.35
2022-12-06T19:39:57.716Z,17.40
2022-12-06T19:42:44.032Z,16.60
2022-12-06T19:45:11.794Z,16.80
2022-12-06T19:47:39.567Z,18.67
2022-12-06T19:50:08.082Z,19.60
2022-12-06T19:52:35.660Z,18.17
2022-12-06T19:55:03.783Z,18.85
2022-12-06T19:57:32.363Z,17.42
2022-12-06T20:00:00.240Z,15.68
2022-12-06T20:02:28.153Z,15.25
2022-12-06T20:04:55.903Z,16.80
2022-12-06T20:07:23.544Z,18.52
2022-12-06T20:09:51.293Z,16.98
2022-12-06T20:12:18.839Z,17.80
2022-12-06T20:14:48.192Z,17.23
2022-12-06T20:17:20.854Z,18.50
2022-12-06T20:19:51.625Z,15.07
2022-12-06T20:22:22.414Z,14.93
2022-12-06T20:24:50.192Z,15.70
2022-12-06T20:27:17.753Z,15.43
2022-12-06T20:29:45.465Z,15.88
2022-12-06T20:32:13.151Z,16.58
2022-12-06T20:34:40.710Z,15.60
2022-12-06T20:37:08.514Z,14.90
2022-12-06T20:39:36.622Z,15.77
2022-12-06T20:42:07.071Z,16.13
2022-12-06T20:44:35.668Z,16.60
2022-12-06T20:47:03.915Z,15.48
2022-12-06T20:49:31.604Z,15.13
2022-12-06T20:52:02.267Z,14.18
2022-12-06T20:54:30.081Z,14.75
2022-12-06T20:56:58.505Z,16.30
2022-12-06T20:59:26.305Z,14.80
2022-12-06T21:01:55.054Z,12.82
2022-12-06T21:04:22.741Z,15.27
2022-12-06T21:06:50.491Z,13.82
2022-12-06T21:09:18.146Z,13.75
2022-12-06T21:11:46.064Z,14.40
2022-12-06T21:14:16.008Z,12.93
2022-12-06T21:16:44.215Z,13.18
2022-12-06T21:19:17.865Z,13.75
2022-12-06T21:21:49.325Z,12.77
2022-12-06T21:24:20.088Z,14.48
2022-12-06T21:26:48.932Z,12.48
2022-12-06T21:29:26.666Z,12.90
2022-12-06T21:31:59.967Z,11.52
2022-12-06T21:34:27.646Z,11.95
2022-12-06T21:36:55.259Z,12.23
2022-12-06T21:39:22.934Z,11.85
2022-12-06T21:41:50.635Z,13.20
2022-12-06T21:44:18.356Z,13.63
2022-12-06T21:46:46.012Z,14.38
2022-12-06T21:49:13.772Z,12.98
2022-12-06T21:51:41.374Z,14.07
2022-12-06T21:54:09.201Z,13.18
2022-12-06T21:56:38.261Z,12.73
2022-12-06T21:59:06.059Z,12.90
2022-12-06T22:01:34.139Z,12.80
2022-12-06T22:04:04.635Z,12.77
2022-12-06T22:06:34.568Z,12.65
2022-12-06T22:09:06.017Z,12.57
2022-12-06T22:11:35.195Z,11.90
2022-12-06T22:14:05.004Z,11.93
2022-12-06T22:16:33.278Z,13.70
2022-12-06T22:19:01.654Z,12.57
2022-12-06T22:21:31.660Z,12.73
2022-12-06T22:24:00.531Z,12.65
2022-12-06T22:26:30.046Z,12.93
2022-12-06T22:28:59.248Z,10.20
2022-12-06T22:31:29.681Z,10.55
2022-12-06T22:33:58.153Z,11.18
2022-12-06T22:36:26.551Z,10.07
2022-12-06T22:38:57.485Z,10.40
2022-12-06T22:41:25.885Z,10.20
2022-12-06T22:43:55.764Z,10.27
2022-12-06T22:46:24.111Z,10.10
2022-12-06T22:48:52.108Z,9.93
2022-12-06T22:51:28.219Z,10.18
2022-12-06T22:53:58.293Z,9.93
2022-12-06T22:56:26.876Z,10.48
2022-12-06T22:58:55.892Z,9.80
2022-12-06T23:01:26.698Z,9.48
2022-12-06T23:03:54.989Z,10.07
2022-12-06T23:06:25.316Z,10.55
2022-12-06T23:08:53.923Z,10.30
2022-12-06T23:11:23.430Z,10.70
2022-12-06T23:13:51.241Z,9.77
2022-12-06T23:16:21.881Z,10.10
2022-12-06T23:18:50.137Z,10.40
2022-12-06T23:21:20.697Z,10.95
2022-12-06T23:23:51.231Z,10.15
2022-12-06T23:26:22.177Z,9.32
2022-12-06T23:28:50.517Z,9.35
2022-12-06T23:31:24.518Z,10.00
2022-12-06T23:33:54.952Z,10.10
2022-12-06T23:36:28.404Z,10.82
2022-12-06T23:38:55.996Z,11.65
2022-12-06T23:41:26.697Z,10.15
2022-12-06T23:43:55.181Z,9.60
2022-12-06T23:46:28.212Z,9.38
2022-12-06T23:48:56.324Z,9.77
2022-12-06T23:51:26.459Z,9.07
2022-12-06T23:53:59.219Z,9.57
2022-12-06T23:56:33.966Z,8.98
2022-12-06T23:59:03.182Z,9.55
